Portada
METAR-TAF:

METAR-TAF

Aeropuertos :

Aeropuerto de Bornholm

Rønne, Dinamarca

latitud: 55-04N, longitud: 014-45E, altitud: 16 m

Observación

El informe se hizo hace 34 minutos, a las 23:50 UTC
Viento 8 kt del suroeste
Temperatura 13°C
Humedad 82%
Presión 1004 hPa
Visibilidad 10 km o más

METAR: EKRN 062350Z AUTO 22008KT 9999 NCD 13/10 Q1004

Hora: 02:24 (00:24 UTC)

Pronóstico

El informe se hizo hace 13 horas y 0 minutos, a las 11:24 UTC
Pronóstico válido del 06 a las 12 UTC al 06 a las 18 UTC
Viento 20 kt del suroeste
Visibilidad 10 km o más
Nubes dispersas a una altura de 2000 ft
Temporalmente
del 06 a las 12 UTC al 06 a las 15 UTC
Nubes dispersas a una altura de 2000 ft, Cumulonimbus.
Evolucionando progresivamente
del 06 a las 13 UTC al 06 a las 16 UTC
Viento 8 kt del suroeste

TAF: EKRN 061124Z 0612/0618 23020KT 9999 SCT020 TEMPO 0612/0615 SCT020CB BECMG 0613/0616 22008KT

Observaciones y pronósticos meteorológicos de más de 4000 aeropuertos (mensajes METAR y TAF).

Los puntos amarillos y rojos representan las estaciones disponibles.

Ponga el ratón en el punto deseado para ver el nombre de la estación.

Haga clic para ver las observaciones y los pronósticos meteorológicos.

Para cambiar el mapa : haga clic en los botones verdes con una cruz de color negro para hacer un zoom, en el botón verde con un guión para alejar o en las flechas verdes para mapas adyacentes.


METAR-TAF: